CYND

Ottawa / Gatineau Airport

Code ICAO CYND
Code IATA YND
Nom Ottawa / Gatineau Airport
Emplacement Gatineau, Quebec, CA
Élévation 211 pieds / 64.3 mètres
Latitude 45.52166667
Longitude -75.56361111
METAR CYND 232304Z 10010KT 10SM -SHRA BKN045 OVC100 21/19 A2982 RMK SC7AC1 CVCTV CLDS EMBD SLP098 DENSITY ALT 1200FT
Informations extras Afficher cartes et CFS
Afficher NOTAMS
Piste Longueur Largeur Surface Élévation
09 6000 ft 150 ft ASP 209 ft
27 6000 ft 150 ft ASP 211 ft

Routes obligatoires

Ottawa / Gatineau Airport

Direction Destination Niveau Remarque Type Route
DEP TO E L RNAV TAKOL T731 ESTEL
DEP TO E L JET RNAV AVVON T733 RABIK T739 ANTOV
DEP TO E L NONJET RNAV AVVON T733 LAFIT T737 REVEN
DEP TO N L RNAV RADEN
DEP TO NE L RNAV TAKOL YLQ
DEP TO NW L RNAV YOW OLIGO YXI
DEP TO S L RNAV IKLAX T634 VIBRU ART
DEP TO SE L RNAV KODEX EPMOK SAVAL BUGSY
DEP TO CYHU L RNAV TAKOL T731 EMPEK T709 PIGNA
DEP TO CYMX L RNAV TAKOL T731 EMPEK T709 PIGNA
DEP TO CYQB H RNAV TAKOL Q941 AGLUK PESAC ARR
DEP TO CYQB L RNAV TAKOL T731 AGLUK PESAC ARR
DEP TO CYUL H&L RNAV AVVON ALOET ARR
DEP TO CYYZ H&L JET RNAV TUKIR IMEBA ARR
DEP TO CYYZ H&L NONJET RNAV TUKIR VIBLI ARR